Time;durP1;ratioP1;P1;durP2;ratioP2;P2;SDS_P1;SDS_P2;PMS_P1;PMS_P2;Temp;Humidity;BMP_temperature;BMP_pressure;BME280_temperature;BME280_humidity;BME280_pressure;Samples;Min_cycle;Max_cycle;Signal;HPM_P1;HPM_P2
2024/01/14 00:00:53;;;;;;;45.30;19.67;;;;;-5.90;93835.00;;;;7401331;19;20142;-81
2024/01/14 00:03:28;;;;;;;42.97;19.77;;;;;-6.10;93835.00;;;;7402501;19;20170;-79
2024/01/14 00:06:05;;;;;;;39.87;19.53;;;;;-6.20;93835.00;;;;7402717;19;20481;-80
2024/01/14 00:08:33;;;;;;;47.67;20.70;;;;;-6.40;93826.00;;;;7402438;19;20572;-80
2024/01/14 00:11:07;;;;;;;36.37;18.20;;;;;-6.20;93816.00;;;;7403153;19;20470;-81
2024/01/14 00:13:35;;;;;;;33.40;17.43;;;;;-6.10;93811.00;;;;7403749;19;20590;-81
2024/01/14 00:16:09;;;;;;;38.50;18.07;;;;;-6.00;93816.00;;;;7401111;19;20146;-78
2024/01/14 00:18:37;;;;;;;35.97;16.93;;;;;-6.90;93816.00;;;;7402276;19;20146;-80
2024/01/14 00:21:05;;;;;;;40.43;17.73;;;;;-6.40;93801.00;;;;7402614;19;20175;-79
2024/01/14 00:23:39;;;;;;;35.53;17.13;;;;;-6.60;93807.00;;;;7403152;19;20147;-80
2024/01/14 00:26:07;;;;;;;37.13;17.27;;;;;-6.70;93811.00;;;;7402103;19;20159;-79
2024/01/14 00:28:45;;;;;;;36.43;17.63;;;;;-6.40;93807.00;;;;7394904;19;20124;-80
2024/01/14 00:31:27;;;;;;;32.07;16.43;;;;;-6.80;93797.00;;;;7398324;19;20141;-79
2024/01/14 00:34:02;;;;;;;33.67;16.73;;;;;-7.00;93787.00;;;;7400037;19;20130;-80
2024/01/14 00:36:40;;;;;;;34.10;16.83;;;;;-6.70;93775.00;;;;7403432;19;20130;-82
2024/01/14 00:39:17;;;;;;;37.13;17.73;;;;;-6.80;93778.00;;;;7403751;19;20122;-79
2024/01/14 00:41:52;;;;;;;35.60;16.60;;;;;-6.60;93772.00;;;;7401223;19;20144;-81
2024/01/14 00:44:20;;;;;;;35.70;15.77;;;;;-6.50;93766.00;;;;7400391;19;20624;-79
2024/01/14 00:46:54;;;;;;;31.00;15.67;;;;;-6.90;93765.00;;;;7403139;19;20136;-79
2024/01/14 00:49:23;;;;;;;33.60;15.30;;;;;-6.90;93761.00;;;;7402354;19;20136;-79
2024/01/14 00:51:58;;;;;;;33.27;15.43;;;;;-6.90;93757.00;;;;7402489;19;20151;-79
2024/01/14 00:54:25;;;;;;;34.73;15.70;;;;;-7.00;93756.00;;;;7401835;19;20137;-75
2024/01/14 00:56:53;;;;;;;36.33;16.80;;;;;-7.00;93753.00;;;;7400525;19;20144;-76
2024/01/14 00:59:27;;;;;;;28.73;14.83;;;;;-6.90;93752.00;;;;7399884;19;20517;-75
2024/01/14 01:02:01;;;;;;;32.90;15.33;;;;;-7.00;93754.00;;;;7401880;19;20132;-75
2024/01/14 01:04:36;;;;;;;34.37;16.87;;;;;-7.20;93749.00;;;;7402491;19;20509;-75
2024/01/14 01:07:10;;;;;;;35.03;16.57;;;;;-7.10;93741.00;;;;7400114;19;20150;-75
2024/01/14 01:09:44;;;;;;;38.43;16.10;;;;;-7.20;93737.00;;;;7398747;19;20144;-75
2024/01/14 01:12:12;;;;;;;29.33;15.83;;;;;-7.20;93726.00;;;;7400452;19;20128;-75
2024/01/14 01:14:47;;;;;;;33.73;15.40;;;;;-7.30;93731.00;;;;7400864;19;20162;-75
2024/01/14 01:17:21;;;;;;;36.97;16.47;;;;;-7.40;93742.00;;;;7400183;19;20608;-75
2024/01/14 01:20:02;;;;;;;33.10;15.13;;;;;-7.60;93735.00;;;;7402218;19;20592;-75
2024/01/14 01:22:29;;;;;;;38.97;16.63;;;;;-7.50;93721.00;;;;7398215;19;20148;-76
2024/01/14 01:25:04;;;;;;;36.00;15.97;;;;;-7.70;93728.00;;;;7399402;19;20138;-74
2024/01/14 01:27:32;;;;;;;34.13;16.47;;;;;-7.60;93726.00;;;;7401823;19;20148;-75
2024/01/14 01:30:07;;;;;;;30.53;15.17;;;;;-7.80;93730.00;;;;7397365;19;20224;-75
2024/01/14 01:32:49;;;;;;;34.37;15.60;;;;;-7.90;93720.00;;;;7398388;19;20489;-75
2024/01/14 01:35:17;;;;;;;31.10;15.53;;;;;-7.80;93705.00;;;;7400202;19;20120;-78
2024/01/14 01:37:53;;;;;;;32.20;16.00;;;;;-7.70;93709.00;;;;7386068;19;21040;-76
2024/01/14 01:40:21;;;;;;;33.67;16.60;;;;;-7.70;93700.00;;;;7398591;19;20149;-75
2024/01/14 01:42:49;;;;;;;33.03;16.27;;;;;-7.70;93697.00;;;;7396846;19;20528;-74
2024/01/14 01:45:24;;;;;;;40.67;16.93;;;;;-7.70;93695.00;;;;7397856;19;20128;-76
2024/01/14 01:47:52;;;;;;;34.70;16.27;;;;;-7.70;93692.00;;;;7399528;19;20121;-75
2024/01/14 01:50:27;;;;;;;37.37;16.43;;;;;-7.70;93681.00;;;;7397668;19;20140;-75
2024/01/14 01:52:55;;;;;;;33.93;17.40;;;;;-7.70;93675.00;;;;7399424;19;20580;-77
2024/01/14 01:55:30;;;;;;;50.23;17.10;;;;;-7.80;93676.00;;;;7398209;19;20666;-77
2024/01/14 01:57:58;;;;;;;43.37;17.93;;;;;-7.80;93670.00;;;;7396762;19;20156;-74
2024/01/14 02:00:34;;;;;;;65.80;28.10;;;;;-7.50;93677.00;;;;7398805;19;20196;-76
2024/01/14 02:03:05;;;;;;;142.43;53.03;;;;;-7.60;93665.00;;;;7398555;19;20656;-79
2024/01/14 02:05:37;;;;;;;57.97;23.60;;;;;-7.70;93651.00;;;;7400735;19;20144;-79
2024/01/14 02:08:14;;;;;;;75.63;29.03;;;;;-7.60;93663.00;;;;7399232;19;20149;-79
2024/01/14 02:10:42;;;;;;;105.33;36.33;;;;;-7.60;93664.00;;;;7396896;19;20137;-80
2024/01/14 02:13:16;;;;;;;69.37;20.13;;;;;-7.50;93657.00;;;;7399175;19;20624;-79
2024/01/14 02:15:50;;;;;;;44.03;18.97;;;;;-7.40;93652.00;;;;7400570;19;20457;-79
2024/01/14 02:18:24;;;;;;;77.10;32.27;;;;;-7.30;93648.00;;;;7400637;19;20584;-79
2024/01/14 02:20:52;;;;;;;49.20;19.60;;;;;-7.30;93649.00;;;;7401743;19;20137;-78
2024/01/14 02:23:22;;;;;;;43.97;18.60;;;;;-7.40;93658.00;;;;7398632;19;20607;-80
2024/01/14 02:25:56;;;;;;;75.93;20.57;;;;;-7.30;93645.00;;;;7399417;19;20138;-80
2024/01/14 02:28:31;;;;;;;44.83;19.50;;;;;-7.30;93639.00;;;;7399198;19;20205;-81
2024/01/14 02:31:00;;;;;;;45.33;20.27;;;;;-7.30;93640.00;;;;7397626;19;20148;-80
2024/01/14 02:33:40;;;;;;;40.47;19.60;;;;;-7.20;93637.00;;;;7397260;19;20180;-80
2024/01/14 02:36:08;;;;;;;86.87;20.53;;;;;-7.20;93643.00;;;;7398517;19;20140;-80
2024/01/14 02:38:43;;;;;;;82.10;18.83;;;;;-7.30;93650.00;;;;7401177;19;20139;-79
2024/01/14 02:41:10;;;;;;;42.80;18.47;;;;;-7.40;93647.00;;;;7400227;19;20139;-81
2024/01/14 02:43:45;;;;;;;41.37;18.43;;;;;-7.30;93637.00;;;;7397258;19;20137;-81
2024/01/14 02:46:19;;;;;;;43.73;18.40;;;;;-7.40;93636.00;;;;7400887;19;20121;-80
2024/01/14 02:48:46;;;;;;;45.10;18.37;;;;;-7.40;93635.00;;;;7397729;19;20539;-81
2024/01/14 02:51:16;;;;;;;41.47;18.07;;;;;-7.60;93638.00;;;;7396368;19;20193;-80
2024/01/14 02:53:50;;;;;;;57.10;16.97;;;;;-7.60;93642.00;;;;7400971;19;20136;-80
2024/01/14 02:56:19;;;;;;;43.97;18.37;;;;;-7.60;93639.00;;;;7401456;19;20128;-79
2024/01/14 02:58:53;;;;;;;40.77;18.20;;;;;-7.70;93626.00;;;;7397861;19;20132;-80
2024/01/14 03:01:21;;;;;;;43.17;18.17;;;;;-7.90;93626.00;;;;7398982;19;20625;-79
2024/01/14 03:03:56;;;;;;;45.30;18.57;;;;;-7.80;93622.00;;;;7400816;19;20133;-77
2024/01/14 03:06:24;;;;;;;45.00;18.47;;;;;-8.20;93627.00;;;;7399533;19;20145;-79
2024/01/14 03:08:58;;;;;;;43.73;17.97;;;;;-8.30;93627.00;;;;7399721;19;20152;-79
2024/01/14 03:11:26;;;;;;;52.77;20.27;;;;;-8.40;93625.00;;;;7397910;19;20171;-79
2024/01/14 03:14:00;;;;;;;45.30;17.93;;;;;-8.30;93619.00;;;;7399347;19;20153;-80
2024/01/14 03:16:34;;;;;;;53.80;20.07;;;;;-8.50;93610.00;;;;7399863;19;20504;-81
2024/01/14 03:19:09;;;;;;;49.30;19.17;;;;;-8.40;93617.00;;;;7399044;19;20629;-81
2024/01/14 03:21:43;;;;;;;52.27;19.23;;;;;-8.30;93616.00;;;;7400945;19;20471;-79
2024/01/14 03:24:18;;;;;;;54.17;21.03;;;;;-8.30;93611.00;;;;7407040;19;20146;-80
2024/01/14 03:26:46;;;;;;;60.43;21.43;;;;;-8.20;93614.00;;;;7406072;19;20137;-79
2024/01/14 03:29:20;;;;;;;53.97;19.70;;;;;-8.20;93616.00;;;;7405967;19;20140;-80
2024/01/14 03:31:48;;;;;;;52.87;20.87;;;;;-8.20;93611.00;;;;7405876;19;20473;-79
2024/01/14 03:34:30;;;;;;;51.57;19.87;;;;;-8.10;93611.00;;;;7407187;19;20144;-79
2024/01/14 03:36:58;;;;;;;51.93;20.03;;;;;-8.20;93605.00;;;;7406225;19;20152;-79
2024/01/14 03:39:32;;;;;;;53.93;21.43;;;;;-8.20;93595.00;;;;7404012;19;20128;-79
2024/01/14 03:42:00;;;;;;;56.10;19.53;;;;;-8.10;93599.00;;;;7405231;19;20164;-79
2024/01/14 03:44:34;;;;;;;55.03;21.03;;;;;-7.90;93598.00;;;;7408108;19;20621;-78
2024/01/14 03:47:03;;;;;;;56.47;23.20;;;;;-8.00;93607.00;;;;7408006;19;20137;-79
2024/01/14 03:49:31;;;;;;;60.83;21.57;;;;;-8.00;93604.00;;;;7405942;19;20599;-80
2024/01/14 03:52:06;;;;;;;60.67;23.03;;;;;-7.90;93607.00;;;;7404220;19;20139;-79
2024/01/14 03:54:40;;;;;;;61.37;22.13;;;;;-7.80;93605.00;;;;7405874;19;20141;-81
2024/01/14 03:57:14;;;;;;;66.73;22.73;;;;;-7.70;93598.00;;;;7404393;19;20151;-80
2024/01/14 03:59:42;;;;;;;61.50;23.20;;;;;-7.60;93594.00;;;;7405765;19;20129;-79
2024/01/14 04:02:16;;;;;;;61.10;22.60;;;;;-7.60;93591.00;;;;7405996;19;20141;-79
2024/01/14 04:04:45;;;;;;;61.33;23.10;;;;;-7.60;93599.00;;;;7407561;19;20145;-80
2024/01/14 04:07:19;;;;;;;57.33;21.43;;;;;-7.50;93593.00;;;;7405472;19;20461;-80
2024/01/14 04:09:47;;;;;;;64.70;23.10;;;;;-7.50;93588.00;;;;7405340;19;20133;-79
2024/01/14 04:12:21;;;;;;;62.13;23.13;;;;;-7.50;93601.00;;;;7405654;19;20484;-79
2024/01/14 04:15:00;;;;;;;54.73;21.63;;;;;-7.50;93592.00;;;;7404731;19;20604;-80
2024/01/14 04:17:36;;;;;;;68.40;23.40;;;;;-7.40;93598.00;;;;7407012;19;20121;-79
2024/01/14 04:20:05;;;;;;;67.40;24.03;;;;;-7.40;93603.00;;;;7406608;19;20632;-79
2024/01/14 04:22:41;;;;;;;58.23;22.20;;;;;-7.60;93617.00;;;;7402944;19;20618;-75
2024/01/14 04:25:10;;;;;;;55.90;21.43;;;;;-7.40;93615.00;;;;7403719;19;20216;-76
2024/01/14 04:27:44;;;;;;;67.63;24.07;;;;;-7.30;93606.00;;;;7403820;19;20595;-75
2024/01/14 04:30:12;;;;;;;56.90;22.97;;;;;-7.30;93605.00;;;;7401948;19;20133;-76
2024/01/14 04:32:53;;;;;;;64.07;23.27;;;;;-7.20;93614.00;;;;7399948;19;20710;-76
2024/01/14 04:35:27;;;;;;;56.53;22.23;;;;;-7.30;93602.00;;;;7402864;19;20200;-76
2024/01/14 04:38:06;;;;;;;58.83;21.70;;;;;-7.30;93599.00;;;;7402431;19;20133;-76
2024/01/14 04:40:40;;;;;;;61.27;23.60;;;;;-7.40;93600.00;;;;7404346;19;20679;-76
2024/01/14 04:43:14;;;;;;;65.37;24.17;;;;;-7.30;93593.00;;;;7402861;19;20511;-76
2024/01/14 04:45:48;;;;;;;61.00;22.77;;;;;-7.50;93598.00;;;;7401699;19;20136;-76
2024/01/14 04:48:16;;;;;;;65.73;24.23;;;;;-7.40;93605.00;;;;7402010;19;20133;-76
2024/01/14 04:50:43;;;;;;;60.53;22.90;;;;;-7.50;93604.00;;;;7401551;19;20454;-75
2024/01/14 04:53:20;;;;;;;57.43;21.20;;;;;-7.70;93603.00;;;;7403969;19;20364;-75
2024/01/14 04:55:48;;;;;;;54.07;21.53;;;;;-7.50;93609.00;;;;7403057;19;20137;-77
2024/01/14 04:58:22;;;;;;;63.77;21.57;;;;;-7.70;93619.00;;;;7402354;19;20600;-76
2024/01/14 05:00:56;;;;;;;58.77;22.50;;;;;-7.50;93616.00;;;;7403232;19;20129;-78
2024/01/14 05:03:24;;;;;;;64.90;22.60;;;;;-7.50;93609.00;;;;7402044;19;20147;-77
2024/01/14 05:05:53;;;;;;;57.47;21.70;;;;;-7.40;93600.00;;;;7401942;19;20485;-76
2024/01/14 05:08:29;;;;;;;57.40;21.20;;;;;-7.40;93604.00;;;;7401333;19;20129;-76
2024/01/14 05:11:06;;;;;;;71.67;22.27;;;;;-7.60;93601.00;;;;7400756;19;20140;-76
2024/01/14 05:13:34;;;;;;;58.30;20.50;;;;;-7.60;93607.00;;;;7401780;19;20155;-76
2024/01/14 05:16:09;;;;;;;52.20;20.23;;;;;-7.80;93603.00;;;;7402403;19;20152;-75
2024/01/14 05:18:45;;;;;;;54.50;20.77;;;;;-7.60;93609.00;;;;7402063;19;20841;-75
2024/01/14 05:21:16;;;;;;;55.17;22.53;;;;;-7.70;93608.00;;;;7401916;19;20516;-74
2024/01/14 05:23:50;;;;;;;55.00;21.43;;;;;-7.70;93613.00;;;;7401301;19;20149;-75
2024/01/14 05:26:18;;;;;;;57.57;20.73;;;;;-7.70;93612.00;;;;7400123;19;20483;-75
2024/01/14 05:28:55;;;;;;;56.67;22.77;;;;;-7.80;93600.00;;;;7369483;19;20144;-76
2024/01/14 05:31:22;;;;;;;51.80;20.43;;;;;-7.60;93603.00;;;;7390546;19;20588;-74
2024/01/14 05:34:02;;;;;;;56.40;21.63;;;;;-7.60;93595.00;;;;7404919;19;20176;-79
2024/01/14 05:36:39;;;;;;;59.93;20.67;;;;;-7.80;93594.00;;;;7410059;19;20144;-78
2024/01/14 05:39:12;;;;;;;47.30;19.63;;;;;-7.90;93590.00;;;;7410469;19;20152;-78
2024/01/14 05:41:48;;;;;;;52.27;21.33;;;;;-7.80;93593.00;;;;7410890;19;20132;-77
2024/01/14 05:44:25;;;;;;;53.77;19.67;;;;;-8.00;93597.00;;;;7410832;19;20191;-77
2024/01/14 05:47:00;;;;;;;62.17;21.03;;;;;-7.90;93606.00;;;;7410198;19;20140;-79
2024/01/14 05:49:33;;;;;;;56.63;20.27;;;;;-7.70;93593.00;;;;7410704;19;20161;-77
2024/01/14 05:52:01;;;;;;;54.43;19.93;;;;;-7.90;93599.00;;;;7410599;19;20152;-79
2024/01/14 05:54:35;;;;;;;51.10;19.83;;;;;-8.00;93600.00;;;;7409286;19;20151;-77
2024/01/14 05:57:10;;;;;;;47.07;18.73;;;;;-7.90;93591.00;;;;7409288;19;20173;-79
2024/01/14 05:59:44;;;;;;;45.87;19.30;;;;;-8.20;93592.00;;;;7409234;19;20144;-79
2024/01/14 06:02:15;;;;;;;48.10;18.87;;;;;-8.20;93598.00;;;;7409410;19;20181;-79
2024/01/14 06:04:43;;;;;;;58.13;20.97;;;;;-8.10;93597.00;;;;7411701;19;20611;-81
2024/01/14 06:07:18;;;;;;;48.23;18.70;;;;;-8.30;93599.00;;;;7409981;19;20150;-79
2024/01/14 06:09:47;;;;;;;55.53;20.93;;;;;-7.90;93594.00;;;;7408174;19;20176;-80
2024/01/14 06:12:21;;;;;;;57.77;20.60;;;;;-8.00;93590.00;;;;7409472;19;20147;-80
2024/01/14 06:14:50;;;;;;;54.97;20.23;;;;;-8.20;93586.00;;;;7410647;19;20152;-79
2024/01/14 06:17:31;;;;;;;55.53;21.00;;;;;-8.50;93577.00;;;;7410424;19;20132;-82
2024/01/14 06:19:59;;;;;;;57.00;20.83;;;;;-8.30;93580.00;;;;7407836;19;20152;-79
2024/01/14 06:22:34;;;;;;;55.77;20.60;;;;;-8.30;93582.00;;;;7407972;19;20153;-79
2024/01/14 06:25:02;;;;;;;62.13;23.10;;;;;-8.30;93568.00;;;;7408944;19;20609;-80
2024/01/14 06:27:30;;;;;;;55.97;21.47;;;;;-8.30;93577.00;;;;7407132;19;20132;-80
2024/01/14 06:30:04;;;;;;;52.93;20.50;;;;;-8.40;93562.00;;;;7411704;19;20599;-77
2024/01/14 06:32:32;;;;;;;59.23;20.37;;;;;-8.40;93570.00;;;;7410245;19;20159;-79
2024/01/14 06:35:15;;;;;;;58.00;21.30;;;;;-8.60;93571.00;;;;7410616;19;20151;-82
2024/01/14 06:37:45;;;;;;;62.10;20.70;;;;;-8.70;93580.00;;;;7409660;19;20172;-80
2024/01/14 06:40:21;;;;;;;56.50;20.13;;;;;-8.90;93570.00;;;;7409341;19;20165;-81
2024/01/14 06:43:00;;;;;;;55.97;20.30;;;;;-8.90;93567.00;;;;7404023;19;20187;-79
2024/01/14 06:45:34;;;;;;;49.43;19.67;;;;;-9.00;93570.00;;;;7387435;19;20489;-78
2024/01/14 06:48:03;;;;;;;63.60;23.97;;;;;-8.90;93571.00;;;;7385810;19;20178;-78
2024/01/14 06:50:38;;;;;;;57.90;19.37;;;;;-8.80;93564.00;;;;7388339;19;20162;-79
2024/01/14 06:53:05;;;;;;;60.03;21.17;;;;;-8.60;93566.00;;;;7388243;19;20144;-79
2024/01/14 06:55:41;;;;;;;57.97;21.73;;;;;-8.60;93558.00;;;;7387205;19;20555;-78
2024/01/14 06:58:09;;;;;;;55.87;21.77;;;;;-8.60;93552.00;;;;7391950;19;20194;-78
2024/01/14 07:00:50;;;;;;;65.60;22.90;;;;;-8.70;93552.00;;;;7393721;19;20178;-77
2024/01/14 07:03:20;;;;;;;66.80;22.67;;;;;-8.60;93541.00;;;;7395773;19;20151;-79
2024/01/14 07:05:54;;;;;;;63.30;22.50;;;;;-8.70;93534.00;;;;7393896;19;20131;-78
2024/01/14 07:08:23;;;;;;;66.47;23.07;;;;;-8.60;93528.00;;;;7394376;19;20172;-78
2024/01/14 07:11:00;;;;;;;54.37;20.83;;;;;-8.70;93525.00;;;;7394322;19;20164;-78
2024/01/14 07:13:29;;;;;;;67.40;22.87;;;;;-8.70;93515.00;;;;7395459;19;20497;-79
2024/01/14 07:15:57;;;;;;;66.50;22.10;;;;;-8.70;93524.00;;;;7392337;19;20150;-78
2024/01/14 07:18:31;;;;;;;67.10;22.80;;;;;-8.60;93512.00;;;;7389253;19;20148;-78
2024/01/14 07:20:59;;;;;;;64.63;22.43;;;;;-8.60;93513.00;;;;7392895;19;20155;-79
2024/01/14 07:23:27;;;;;;;57.53;20.77;;;;;-8.60;93509.00;;;;7392686;19;20151;-77
2024/01/14 07:26:18;;;;;;;59.87;22.77;;;;;-8.50;93519.00;;;;7392472;19;20669;-79
2024/01/14 07:28:54;;;;;;;62.97;22.23;;;;;-8.50;93511.00;;;;7394603;19;20132;-78
2024/01/14 07:31:30;;;;;;;58.83;22.77;;;;;-8.50;93514.00;;;;7393347;19;20156;-78
2024/01/14 07:33:58;;;;;;;57.07;22.43;;;;;-8.30;93502.00;;;;7391854;19;20594;-77
2024/01/14 07:36:33;;;;;;;64.10;22.13;;;;;-8.30;93505.00;;;;7391862;19;20147;-78
2024/01/14 07:39:03;;;;;;;58.90;21.70;;;;;-8.30;93498.00;;;;7390252;19;20539;-78
2024/01/14 07:41:38;;;;;;;52.77;21.20;;;;;-8.30;93502.00;;;;7391659;19;20580;-77
2024/01/14 07:44:07;;;;;;;60.27;21.63;;;;;-8.20;93506.00;;;;7391831;19;20183;-77
2024/01/14 07:46:41;;;;;;;57.13;20.80;;;;;-8.00;93508.00;;;;7393657;19;20129;-78
2024/01/14 07:49:16;;;;;;;56.90;21.20;;;;;-7.90;93496.00;;;;7391504;19;20494;-77
2024/01/14 07:51:50;;;;;;;54.47;21.30;;;;;-7.80;93500.00;;;;7392783;19;20488;-77
2024/01/14 07:54:24;;;;;;;48.83;20.33;;;;;-7.70;93502.00;;;;7392435;19;20505;-76
2024/01/14 07:57:01;;;;;;;52.30;19.60;;;;;-7.40;93498.00;;;;7393348;19;20131;-77
2024/01/14 07:59:30;;;;;;;53.03;20.87;;;;;-7.40;93492.00;;;;7393596;19;20158;-75
2024/01/14 08:02:04;;;;;;;53.53;19.67;;;;;-7.10;93476.00;;;;7393751;19;20144;-76
2024/01/14 08:04:33;;;;;;;56.40;20.33;;;;;-6.90;93480.00;;;;7393583;19;20193;-75
2024/01/14 08:07:15;;;;;;;54.10;19.87;;;;;-6.70;93475.00;;;;7390957;19;20188;-78
2024/01/14 08:09:50;;;;;;;45.70;19.90;;;;;-6.50;93474.00;;;;7392415;19;20641;-75
2024/01/14 08:12:17;;;;;;;45.47;18.80;;;;;-6.00;93465.00;;;;7391346;19;20149;-76
2024/01/14 08:14:54;;;;;;;45.03;18.23;;;;;-6.00;93459.00;;;;7389850;19;20493;-78
2024/01/14 08:17:31;;;;;;;41.27;17.97;;;;;-5.20;93467.00;;;;7388742;19;20171;-77
2024/01/14 08:20:08;;;;;;;42.43;18.53;;;;;-5.40;93454.00;;;;7391175;19;20163;-76
2024/01/14 08:22:42;;;;;;;42.60;17.77;;;;;-5.00;93464.00;;;;7392285;19;20148;-78
2024/01/14 08:25:10;;;;;;;37.23;16.70;;;;;-4.80;93447.00;;;;7391716;19;20132;-77
2024/01/14 08:27:44;;;;;;;44.40;19.33;;;;;-4.90;93451.00;;;;7392864;19;20169;-76
2024/01/14 08:30:20;;;;;;;41.80;16.67;;;;;-4.80;93439.00;;;;7390261;19;20153;-77
2024/01/14 08:32:57;;;;;;;38.87;16.50;;;;;-4.50;93439.00;;;;7387850;19;20181;-76
2024/01/14 08:35:39;;;;;;;34.70;14.97;;;;;-4.20;93435.00;;;;7391333;19;20613;-77
2024/01/14 08:38:10;;;;;;;29.63;14.33;;;;;-3.70;93434.00;;;;7392142;19;20134;-80
2024/01/14 08:40:45;;;;;;;33.97;14.53;;;;;-3.80;93442.00;;;;7391628;19;20144;-78
2024/01/14 08:43:20;;;;;;;31.00;14.83;;;;;-4.30;93438.00;;;;7391816;19;20620;-76
2024/01/14 08:45:57;;;;;;;34.40;15.07;;;;;-4.50;93444.00;;;;7387909;19;20122;-76
2024/01/14 08:48:32;;;;;;;29.87;14.30;;;;;-4.40;93446.00;;;;7386462;19;20134;-77
2024/01/14 08:51:13;;;;;;;30.57;13.93;;;;;-4.60;93433.00;;;;7389200;19;20612;-79
2024/01/14 08:53:47;;;;;;;31.20;13.30;;;;;-4.30;93439.00;;;;7390035;19;20600;-77
2024/01/14 08:56:21;;;;;;;32.47;14.23;;;;;-3.30;93424.00;;;;7392625;19;20138;-77
2024/01/14 08:58:56;;;;;;;31.03;13.57;;;;;-3.20;93438.00;;;;7391126;19;20215;-77
2024/01/14 09:01:31;;;;;;;30.33;14.17;;;;;-2.70;93425.00;;;;7390300;19;20646;-76
2024/01/14 09:03:59;;;;;;;34.73;14.67;;;;;-2.30;93415.00;;;;7392549;19;20132;-76
2024/01/14 09:06:37;;;;;;;29.10;13.80;;;;;-2.30;93423.00;;;;7392008;19;20176;-75
2024/01/14 09:09:06;;;;;;;29.50;14.20;;;;;-1.90;93426.00;;;;7390692;19;20154;-75
2024/01/14 09:11:40;;;;;;;32.33;13.70;;;;;-0.80;93414.00;;;;7390643;19;20148;-75
2024/01/14 09:14:08;;;;;;;32.37;14.57;;;;;-0.20;93419.00;;;;7392864;19;20161;-73
2024/01/14 09:16:42;;;;;;;27.27;13.97;;;;;-0.70;93408.00;;;;7392909;19;20158;-74
2024/01/14 09:19:12;;;;;;;30.20;14.20;;;;;0.10;93404.00;;;;7389493;19;20131;-76
2024/01/14 09:21:46;;;;;;;27.87;14.20;;;;;1.70;93412.00;;;;7391248;19;20147;-74
2024/01/14 09:24:22;;;;;;;24.60;12.47;;;;;1.40;93414.00;;;;7392309;19;20137;-76
2024/01/14 09:26:56;;;;;;;24.03;13.00;;;;;1.40;93411.00;;;;7392682;19;20148;-79
2024/01/14 09:29:24;;;;;;;24.13;13.03;;;;;1.90;93415.00;;;;7389927;19;20155;-75
2024/01/14 09:31:58;;;;;;;25.50;14.03;;;;;1.70;93427.00;;;;7390995;19;20148;-80
2024/01/14 09:34:39;;;;;;;25.13;12.93;;;;;1.30;93413.00;;;;7390876;19;20210;-73
2024/01/14 09:37:13;;;;;;;23.93;13.23;;;;;1.70;93422.00;;;;7390861;19;20144;-74
2024/01/14 09:39:42;;;;;;;27.03;13.23;;;;;2.10;93426.00;;;;7390310;19;20627;-75
2024/01/14 09:42:38;;;;;;;25.43;13.07;;;;;2.30;93417.00;;;;7387544;19;20228;-74
2024/01/14 09:45:07;;;;;;;26.67;13.93;;;;;2.70;93404.00;;;;7392475;19;20604;-74
2024/01/14 09:47:42;;;;;;;24.30;13.00;;;;;3.20;93398.00;;;;7390791;19;20166;-75
2024/01/14 09:50:13;;;;;;;23.47;13.37;;;;;4.00;93401.00;;;;7392254;19;20188;-75
2024/01/14 09:52:50;;;;;;;24.77;13.37;;;;;4.10;93403.00;;;;7389446;19;20148;-77
2024/01/14 09:55:18;;;;;;;23.17;13.63;;;;;2.40;93409.00;;;;7390974;19;20212;-78
2024/01/14 09:57:55;;;;;;;24.97;13.03;;;;;3.70;93391.00;;;;7387553;19;20517;-74
2024/01/14 10:00:24;;;;;;;21.37;12.73;;;;;4.20;93391.00;;;;7383159;19;20129;-75
2024/01/14 10:03:02;;;;;;;24.17;13.07;;;;;3.50;93395.00;;;;7386055;19;20208;-77
2024/01/14 10:05:36;;;;;;;22.50;13.80;;;;;3.70;93395.00;;;;7386830;19;20505;-75
2024/01/14 10:08:14;;;;;;;24.30;14.23;;;;;4.50;93380.00;;;;7388352;19;20152;-76
2024/01/14 10:10:54;;;;;;;24.97;14.30;;;;;3.60;93397.00;;;;7388475;19;20140;-77
2024/01/14 10:13:31;;;;;;;24.93;13.73;;;;;3.80;93392.00;;;;7387099;19;20168;-76
2024/01/14 10:16:10;;;;;;;24.57;14.90;;;;;2.60;93387.00;;;;7389321;19;20132;-75
2024/01/14 10:19:06;;;;;;;24.97;14.70;;;;;3.50;93391.00;;;;7378295;19;20144;-76
2024/01/14 10:21:34;;;;;;;24.27;14.67;;;;;3.60;93386.00;;;;7385931;19;20121;-75
2024/01/14 10:24:10;;;;;;;25.00;14.90;;;;;3.90;93379.00;;;;7387636;19;20145;-75
2024/01/14 10:26:37;;;;;;;23.77;14.30;;;;;4.20;93375.00;;;;7387899;19;20152;-78
2024/01/14 10:29:11;;;;;;;27.23;14.13;;;;;3.70;93373.00;;;;7389545;19;20165;-75
2024/01/14 10:31:46;;;;;;;22.73;14.90;;;;;3.80;93368.00;;;;7389504;19;20139;-77
2024/01/14 10:34:28;;;;;;;24.57;15.07;;;;;4.70;93369.00;;;;7387598;19;20163;-77
2024/01/14 10:37:04;;;;;;;26.83;14.43;;;;;4.70;93366.00;;;;7388031;19;20485;-76
2024/01/14 10:39:41;;;;;;;24.77;14.53;;;;;4.00;93361.00;;;;7388599;19;20187;-76
2024/01/14 10:42:09;;;;;;;23.43;13.67;;;;;4.50;93350.00;;;;7388345;19;20263;-76
2024/01/14 10:44:43;;;;;;;23.63;14.17;;;;;3.90;93355.00;;;;7388586;19;20140;-77
2024/01/14 10:47:12;;;;;;;22.97;14.17;;;;;3.90;93353.00;;;;7389238;19;20168;-76
2024/01/14 10:49:47;;;;;;;21.50;13.50;;;;;4.00;93352.00;;;;7390260;19;20156;-74
2024/01/14 10:52:26;;;;;;;20.90;12.83;;;;;5.10;93338.00;;;;7389194;19;20493;-76
2024/01/14 10:55:17;;;;;;;21.77;13.33;;;;;4.60;93330.00;;;;7388156;19;20141;-77
2024/01/14 10:57:49;;;;;;;22.63;13.53;;;;;4.10;93332.00;;;;7389782;19;20152;-77
2024/01/14 11:00:24;;;;;;;18.57;11.37;;;;;3.80;93325.00;;;;7387009;19;20148;-75
2024/01/14 11:02:51;;;;;;;18.40;11.03;;;;;4.30;93335.00;;;;7386924;19;20144;-75
2024/01/14 11:05:19;;;;;;;19.67;11.73;;;;;4.30;93327.00;;;;7389873;19;20129;-75
2024/01/14 11:07:54;;;;;;;20.07;10.80;;;;;4.10;93319.00;;;;7388382;19;20526;-75
2024/01/14 11:10:22;;;;;;;18.70;11.60;;;;;5.00;93306.00;;;;7387941;19;20148;-75
2024/01/14 11:13:08;;;;;;;17.47;11.50;;;;;6.50;93303.00;;;;7386399;19;20147;-77
2024/01/14 11:15:51;;;;;;;19.93;12.07;;;;;5.60;93303.00;;;;7385542;19;20148;-79
2024/01/14 11:18:47;;;;;;;17.67;10.90;;;;;6.10;93295.00;;;;7385815;19;20200;-75
2024/01/14 11:21:45;;;;;;;18.07;11.27;;;;;6.30;93294.00;;;;7385609;19;20129;-77
2024/01/14 11:24:39;;;;;;;19.43;11.60;;;;;6.10;93286.00;;;;7387991;19;20189;-81
2024/01/14 11:27:08;;;;;;;18.30;11.60;;;;;5.30;93289.00;;;;7384961;19;20204;-80
2024/01/14 11:29:51;;;;;;;22.08;12.50;;;;;5.90;93279.00;;;;7387722;19;20456;-82
2024/01/14 11:32:27;;;;;;;18.80;11.45;;;;;6.20;93280.00;;;;7387168;19;21281;-80
2024/01/14 11:35:09;;;;;;;20.33;11.90;;;;;6.10;93267.00;;;;7386715;19;20220;-79
2024/01/14 11:37:45;;;;;;;22.03;13.83;;;;;6.00;93270.00;;;;7383887;19;20132;-78
2024/01/14 11:40:27;;;;;;;21.00;12.30;;;;;6.10;93266.00;;;;7380595;19;20177;-78
2024/01/14 11:43:07;;;;;;;20.10;12.50;;;;;6.10;93256.00;;;;7385086;19;20505;-80
2024/01/14 11:45:42;;;;;;;21.80;12.47;;;;;6.20;93254.00;;;;7387208;19;20489;-80
2024/01/14 11:48:17;;;;;;;23.75;12.50;;;;;6.10;93249.00;;;;7393141;19;20212;-80
2024/01/14 11:50:52;;;;;;;22.17;13.60;;;;;6.30;93246.00;;;;7388104;19;20639;-80
2024/01/14 11:53:35;;;;;;;21.43;12.23;;;;;5.90;93235.00;;;;7387639;19;20219;-77
2024/01/14 11:56:02;;;;;;;23.47;14.03;;;;;5.50;93244.00;;;;7388067;19;20488;-78
2024/01/14 11:58:36;;;;;;;18.17;12.03;;;;;4.50;93241.00;;;;7387608;19;20149;-80
2024/01/14 12:01:05;;;;;;;22.63;13.57;;;;;4.70;93226.00;;;;7390151;19;20641;-79
2024/01/14 12:03:39;;;;;;;19.67;13.07;;;;;5.30;93219.00;;;;7392926;19;20592;-79
2024/01/14 12:06:13;;;;;;;21.73;13.63;;;;;4.90;93223.00;;;;7391903;19;20625;-81
2024/01/14 12:08:43;;;;;;;23.57;13.90;;;;;4.90;93209.00;;;;7391258;19;20160;-80
2024/01/14 12:11:16;;;;;;;24.10;14.60;;;;;6.30;93205.00;;;;7389265;19;20169;-79
2024/01/14 12:13:45;;;;;;;22.67;13.77;;;;;5.80;93203.00;;;;7390015;19;20157;-78
2024/01/14 12:16:19;;;;;;;23.63;14.67;;;;;4.50;93190.00;;;;7387033;19;20140;-78
2024/01/14 12:18:47;;;;;;;24.83;14.98;;;;;5.20;93198.00;;;;7391045;19;20596;-81
2024/01/14 12:21:27;;;;;;;22.77;14.60;;;;;5.10;93188.00;;;;7391035;19;20208;-79
2024/01/14 12:24:03;;;;;;;24.57;14.33;;;;;6.00;93187.00;;;;7389814;19;20157;-79
2024/01/14 12:26:36;;;;;;;23.53;14.13;;;;;5.70;93167.00;;;;7390549;19;20152;-80
2024/01/14 12:29:04;;;;;;;22.70;14.87;;;;;6.40;93162.00;;;;7391526;19;20129;-77
2024/01/14 12:31:34;;;;;;;21.30;13.93;;;;;6.70;93154.00;;;;7390663;19;20171;-78